createdAt,value
2019-01-19T00:01:28.657Z,15.23
2019-01-19T00:04:36.737Z,13.80
2019-01-19T00:07:43.808Z,12.77
2019-01-19T00:10:58.899Z,12.13
2019-01-19T00:14:11.320Z,11.55
2019-01-19T00:17:33.167Z,11.13
2019-01-19T00:20:38.883Z,12.50
2019-01-19T00:23:46.059Z,13.40
2019-01-19T00:26:39.025Z,15.50
2019-01-19T00:29:32.408Z,16.32
2019-01-19T00:32:51.578Z,18.80
2019-01-19T00:36:08.889Z,14.43
2019-01-19T00:39:02.468Z,17.80
2019-01-19T00:42:26.745Z,19.03
2019-01-19T00:45:42.015Z,20.88
2019-01-19T00:48:41.013Z,19.73
2019-01-19T00:51:48.419Z,18.17
2019-01-19T00:54:32.264Z,16.10
2019-01-19T00:57:47.526Z,15.17
2019-01-19T01:00:32.620Z,16.40
2019-01-19T01:03:19.513Z,18.15
2019-01-19T01:06:34.855Z,17.67
2019-01-19T01:09:40.873Z,17.50
2019-01-19T01:12:36.993Z,18.37
2019-01-19T01:15:36.912Z,16.47
2019-01-19T01:18:36.731Z,16.40
2019-01-19T01:21:30.865Z,17.20
2019-01-19T01:24:40.508Z,15.00
2019-01-19T01:27:22.119Z,15.93
2019-01-19T01:30:33.612Z,13.73
2019-01-19T01:33:45.641Z,14.83
2019-01-19T01:37:09.322Z,11.70
2019-01-19T01:40:33.852Z,11.97
2019-01-19T01:43:53.707Z,11.30
2019-01-19T01:47:17.157Z,12.10
2019-01-19T01:50:16.782Z,12.17
2019-01-19T01:53:44.045Z,11.53
2019-01-19T01:56:16.186Z,12.43
2019-01-19T01:59:18.209Z,12.87
2019-01-19T02:02:39.887Z,12.60
2019-01-19T02:05:43.507Z,13.33
2019-01-19T02:08:59.008Z,12.33
2019-01-19T02:11:55.246Z,12.90
2019-01-19T02:15:10.271Z,13.33
2019-01-19T02:18:08.385Z,10.93
2019-01-19T02:20:55.592Z,11.70
2019-01-19T02:23:48.138Z,12.58
2019-01-19T02:26:45.428Z,11.17
2019-01-19T02:29:56.839Z,10.90
2019-01-19T02:33:23.734Z,9.80
2019-01-19T02:36:35.549Z,9.10
2019-01-19T02:39:29.097Z,10.33
2019-01-19T02:42:43.379Z,8.63
2019-01-19T02:45:56.856Z,9.47
2019-01-19T02:49:24.406Z,9.37
2019-01-19T02:52:33.474Z,9.07
2019-01-19T02:56:00.963Z,8.67
2019-01-19T02:59:00.228Z,8.47
2019-01-19T03:01:44.087Z,8.20
2019-01-19T03:04:56.285Z,10.03
2019-01-19T03:08:10.225Z,9.80
2019-01-19T03:11:21.518Z,10.40
2019-01-19T03:14:16.014Z,9.57
2019-01-19T03:17:21.029Z,9.70
2019-01-19T03:20:42.386Z,10.27
2019-01-19T03:24:06.885Z,9.00
2019-01-19T03:27:03.299Z,10.33
2019-01-19T03:30:33.988Z,9.20
2019-01-19T03:33:42.082Z,9.27
2019-01-19T03:36:42.823Z,9.20
2019-01-19T03:39:52.140Z,9.60
2019-01-19T03:43:09.352Z,10.87
2019-01-19T03:46:21.350Z,9.97
2019-01-19T03:49:18.002Z,10.83
2019-01-19T03:52:24.677Z,9.53
2019-01-19T03:55:13.023Z,9.30
2019-01-19T03:58:24.638Z,8.68
2019-01-19T04:01:08.768Z,8.93
2019-01-19T04:04:06.732Z,8.53
2019-01-19T04:07:02.774Z,8.50
2019-01-19T04:09:59.812Z,8.28
2019-01-19T04:13:11.045Z,8.10
2019-01-19T04:16:33.252Z,7.30
2019-01-19T04:19:50.363Z,7.80
2019-01-19T04:22:32.974Z,6.97
2019-01-19T04:25:34.630Z,7.20
2019-01-19T04:28:07.761Z,7.57
2019-01-19T04:30:39.073Z,7.72
2019-01-19T04:33:10.956Z,8.47
2019-01-19T04:35:42.218Z,8.17
2019-01-19T04:38:13.489Z,7.63
2019-01-19T04:40:44.766Z,8.20
2019-01-19T04:43:16.116Z,7.67
2019-01-19T04:45:47.429Z,7.23
2019-01-19T04:48:20.357Z,8.80
2019-01-19T04:50:52.369Z,8.00
2019-01-19T04:53:23.656Z,8.45
2019-01-19T04:55:55.115Z,8.10
2019-01-19T04:58:26.589Z,9.33
2019-01-19T05:00:57.940Z,7.65
2019-01-19T05:03:29.276Z,8.00
2019-01-19T05:06:00.607Z,8.37
2019-01-19T05:08:31.858Z,7.43
2019-01-19T05:11:03.342Z,6.90
2019-01-19T05:13:34.631Z,7.40
2019-01-19T05:16:06.739Z,6.85
2019-01-19T05:18:37.991Z,6.90
2019-01-19T05:21:09.410Z,6.23
2019-01-19T05:23:40.840Z,5.95
2019-01-19T05:26:12.194Z,6.20
2019-01-19T05:28:43.490Z,6.40
2019-01-19T05:31:14.799Z,6.20
2019-01-19T05:33:46.077Z,6.73
2019-01-19T05:36:17.487Z,7.13
2019-01-19T05:38:48.760Z,6.83
2019-01-19T05:41:20.111Z,5.75
2019-01-19T05:43:51.518Z,7.05
2019-01-19T05:46:22.807Z,7.20
2019-01-19T05:48:54.163Z,7.43
2019-01-19T05:51:25.521Z,6.50
2019-01-19T05:53:56.760Z,7.43
2019-01-19T05:56:28.142Z,6.47
2019-01-19T05:58:59.513Z,5.83
2019-01-19T06:01:30.842Z,6.25
2019-01-19T06:04:02.114Z,6.43
2019-01-19T06:06:33.414Z,6.33
2019-01-19T06:09:07.756Z,6.60
2019-01-19T06:11:38.999Z,6.27
2019-01-19T06:14:10.246Z,6.77
2019-01-19T06:16:44.076Z,7.17
2019-01-19T06:19:15.744Z,5.95
2019-01-19T06:21:54.745Z,6.77
2019-01-19T06:24:26.011Z,6.30
2019-01-19T06:26:57.333Z,6.30
2019-01-19T06:29:28.573Z,7.30
2019-01-19T06:31:59.916Z,7.70
2019-01-19T06:34:31.240Z,5.90
2019-01-19T06:37:04.337Z,7.33
2019-01-19T06:39:35.853Z,6.40
2019-01-19T06:42:07.146Z,7.13
2019-01-19T06:44:38.567Z,7.60
2019-01-19T06:47:10.119Z,5.83
2019-01-19T06:49:41.470Z,7.10
2019-01-19T06:52:12.731Z,7.00
2019-01-19T06:54:44.069Z,6.80
2019-01-19T06:57:15.436Z,6.80
2019-01-19T06:59:46.761Z,6.60
2019-01-19T07:02:18.267Z,5.80
2019-01-19T07:04:49.705Z,6.67
2019-01-19T07:07:21.024Z,6.33
2019-01-19T07:09:52.371Z,6.57
2019-01-19T07:12:23.739Z,6.70
2019-01-19T07:14:55.137Z,6.90
2019-01-19T07:17:26.626Z,7.73
2019-01-19T07:19:57.896Z,7.03
2019-01-19T07:22:29.185Z,6.90
2019-01-19T07:25:00.877Z,6.80
2019-01-19T07:27:32.241Z,7.10
2019-01-19T07:30:04.982Z,7.47
2019-01-19T07:32:36.256Z,7.33
2019-01-19T07:35:08.661Z,7.60
2019-01-19T07:37:39.990Z,7.20
2019-01-19T07:40:13.299Z,6.73
2019-01-19T07:42:45.092Z,7.20
2019-01-19T07:45:16.981Z,6.40
2019-01-19T07:47:48.338Z,7.47
2019-01-19T07:50:19.698Z,6.50
2019-01-19T07:52:51.101Z,6.80
2019-01-19T07:55:22.352Z,7.23
2019-01-19T07:57:53.640Z,7.40
2019-01-19T08:00:27.603Z,6.80
2019-01-19T08:02:58.931Z,6.55
2019-01-19T08:05:31.847Z,6.30
2019-01-19T08:08:03.218Z,6.40
2019-01-19T08:10:34.638Z,5.78
2019-01-19T08:13:05.930Z,7.43
2019-01-19T08:15:37.168Z,6.70
2019-01-19T08:18:08.723Z,8.17
2019-01-19T08:20:40.007Z,9.43
2019-01-19T08:23:11.913Z,7.40
2019-01-19T08:25:43.326Z,6.43
2019-01-19T08:28:14.675Z,7.20
2019-01-19T08:30:46.024Z,6.07
2019-01-19T08:33:17.334Z,7.35
2019-01-19T08:35:48.739Z,6.20
2019-01-19T08:38:20.387Z,6.67
2019-01-19T08:40:51.761Z,5.60
2019-01-19T08:43:30.016Z,7.57
2019-01-19T08:46:02.317Z,6.83
2019-01-19T08:48:33.692Z,7.25
2019-01-19T08:51:05.244Z,7.60
2019-01-19T08:53:38.403Z,6.50
2019-01-19T08:56:09.650Z,6.43
2019-01-19T08:58:41.135Z,7.00
2019-01-19T09:01:12.409Z,6.37
2019-01-19T09:03:43.830Z,6.93
2019-01-19T09:06:15.127Z,6.17
2019-01-19T09:08:46.390Z,6.90
2019-01-19T09:11:17.725Z,7.00
2019-01-19T09:13:49.105Z,7.00
2019-01-19T09:16:22.292Z,7.97
2019-01-19T09:18:53.615Z,7.30
2019-01-19T09:21:24.941Z,8.30
2019-01-19T09:24:00.612Z,8.43
2019-01-19T09:26:31.851Z,7.00
2019-01-19T09:29:03.206Z,7.80
2019-01-19T09:31:34.564Z,8.00
2019-01-19T09:34:06.231Z,7.97
2019-01-19T09:36:37.494Z,7.60
2019-01-19T09:39:12.483Z,9.27
2019-01-19T09:41:43.756Z,8.10
2019-01-19T09:44:15.064Z,7.90
2019-01-19T09:46:46.624Z,7.80
2019-01-19T09:49:18.059Z,7.10
2019-01-19T09:51:49.360Z,7.57
2019-01-19T09:54:22.296Z,7.35
2019-01-19T09:56:53.560Z,7.20
2019-01-19T09:59:24.909Z,6.80
2019-01-19T10:01:56.298Z,7.03
2019-01-19T10:04:29.242Z,7.17
2019-01-19T10:07:00.504Z,7.60
2019-01-19T10:09:31.811Z,6.43
2019-01-19T10:12:03.258Z,7.30
2019-01-19T10:14:34.613Z,7.33
2019-01-19T10:17:06.062Z,7.25
2019-01-19T10:19:37.403Z,7.73
2019-01-19T10:22:08.708Z,8.07
2019-01-19T10:24:39.974Z,7.10
2019-01-19T10:27:11.289Z,7.90
2019-01-19T10:29:42.696Z,7.80
2019-01-19T10:32:13.955Z,7.70
2019-01-19T10:34:45.235Z,7.30
2019-01-19T10:37:17.498Z,7.55
2019-01-19T10:39:48.794Z,8.57
2019-01-19T10:42:20.298Z,7.80
2019-01-19T10:44:51.692Z,7.90
2019-01-19T10:47:22.932Z,7.50
2019-01-19T10:49:54.262Z,6.77
2019-01-19T10:52:25.685Z,7.37
2019-01-19T10:54:56.959Z,6.70
2019-01-19T10:57:28.352Z,6.97
2019-01-19T10:59:59.658Z,6.65
2019-01-19T11:02:30.917Z,6.75
2019-01-19T11:05:02.452Z,7.60
2019-01-19T11:07:33.876Z,7.53
2019-01-19T11:10:06.417Z,7.30
2019-01-19T11:12:39.586Z,8.33
2019-01-19T11:15:13.871Z,7.50
2019-01-19T11:17:46.650Z,6.85
2019-01-19T11:20:19.990Z,7.20
2019-01-19T11:22:51.452Z,7.20
2019-01-19T11:25:25.630Z,7.40
2019-01-19T11:27:58.394Z,6.30
2019-01-19T11:30:31.633Z,6.67
2019-01-19T11:33:05.809Z,7.33
2019-01-19T11:35:37.519Z,7.57
2019-01-19T11:38:12.008Z,6.63
2019-01-19T11:40:43.479Z,6.23
2019-01-19T11:43:19.180Z,6.90
2019-01-19T11:45:51.567Z,5.75
2019-01-19T11:48:25.478Z,6.80
2019-01-19T11:50:59.365Z,7.10
2019-01-19T11:53:33.506Z,6.53
2019-01-19T11:56:12.174Z,7.00
2019-01-19T11:58:41.502Z,6.47
2019-01-19T12:01:15.553Z,7.65
2019-01-19T12:03:46.806Z,7.47
2019-01-19T12:06:20.411Z,8.48
2019-01-19T12:08:51.674Z,6.43
2019-01-19T12:11:25.892Z,6.90
2019-01-19T12:14:00.532Z,5.73
2019-01-19T12:16:32.827Z,6.60
2019-01-19T12:19:05.654Z,5.70
2019-01-19T12:21:37.816Z,7.23
2019-01-19T12:24:13.334Z,6.30
2019-01-19T12:26:45.815Z,6.53
2019-01-19T12:29:21.422Z,6.30
2019-01-19T12:31:53.719Z,7.07
2019-01-19T12:34:29.388Z,6.97
2019-01-19T12:37:02.281Z,6.97
2019-01-19T12:39:33.984Z,6.70
2019-01-19T12:42:07.727Z,7.43
2019-01-19T12:44:41.809Z,6.50
2019-01-19T12:47:14.728Z,6.83
2019-01-19T12:49:46.946Z,7.30
2019-01-19T12:52:22.487Z,6.60
2019-01-19T12:54:53.880Z,6.70
2019-01-19T12:57:25.521Z,6.53
2019-01-19T12:59:59.288Z,6.92
2019-01-19T13:02:31.760Z,7.50
2019-01-19T13:05:09.360Z,7.37
2019-01-19T13:07:40.971Z,8.03
2019-01-19T13:10:23.077Z,10.13
2019-01-19T13:13:14.057Z,8.03
2019-01-19T13:16:17.152Z,7.58
2019-01-19T13:19:12.497Z,7.92
2019-01-19T13:22:24.780Z,7.23
2019-01-19T13:25:18.696Z,7.60
2019-01-19T13:28:37.813Z,8.30
2019-01-19T13:31:46.731Z,8.53
2019-01-19T13:34:48.549Z,8.80
2019-01-19T13:37:49.390Z,8.40
2019-01-19T13:41:06.969Z,8.50
2019-01-19T13:44:33.260Z,7.80
2019-01-19T13:47:40.339Z,8.27
2019-01-19T13:50:57.409Z,9.70
2019-01-19T13:54:11.321Z,10.23
2019-01-19T13:57:14.504Z,12.03
2019-01-19T14:00:33.491Z,13.28
2019-01-19T14:03:48.343Z,9.80
2019-01-19T14:07:09.791Z,11.00
2019-01-19T14:10:24.841Z,10.70
2019-01-19T14:13:30.694Z,10.10
2019-01-19T14:16:18.748Z,11.40
2019-01-19T14:19:47.470Z,10.77
2019-01-19T14:23:08.112Z,13.60
2019-01-19T14:26:23.813Z,11.57
2019-01-19T14:29:31.105Z,15.13
2019-01-19T14:32:46.591Z,10.77
2019-01-19T14:36:06.276Z,10.80
2019-01-19T14:39:25.802Z,11.00
2019-01-19T14:42:56.959Z,11.57
2019-01-19T14:46:00.964Z,11.40
2019-01-19T14:49:08.639Z,11.23
2019-01-19T14:52:35.999Z,13.30
2019-01-19T14:55:45.137Z,12.70
2019-01-19T14:58:52.544Z,13.40
2019-01-19T15:02:06.899Z,12.85
2019-01-19T15:05:04.158Z,13.00
2019-01-19T15:08:19.913Z,12.73
2019-01-19T15:11:32.640Z,13.40
2019-01-19T15:14:33.873Z,12.90
2019-01-19T15:17:35.836Z,13.23
2019-01-19T15:20:37.605Z,13.23
2019-01-19T15:23:37.874Z,14.03
2019-01-19T15:26:51.717Z,14.83
2019-01-19T15:29:54.664Z,14.18
2019-01-19T15:32:52.123Z,15.47
2019-01-19T15:35:55.820Z,15.32
2019-01-19T15:38:40.945Z,13.53
2019-01-19T15:41:53.341Z,13.87
2019-01-19T15:45:01.967Z,15.63
2019-01-19T15:48:12.833Z,14.83
2019-01-19T15:51:35.791Z,15.00
2019-01-19T15:54:37.779Z,13.10
2019-01-19T15:58:05.264Z,13.47
2019-01-19T16:01:14.348Z,14.65
2019-01-19T16:04:32.557Z,15.60
2019-01-19T16:07:30.137Z,14.70
2019-01-19T16:10:29.271Z,15.93
2019-01-19T16:13:35.839Z,15.33
2019-01-19T16:16:53.489Z,15.20
2019-01-19T16:19:55.390Z,14.77
2019-01-19T16:22:48.506Z,15.40
2019-01-19T16:25:55.161Z,14.73
2019-01-19T16:29:09.952Z,16.30
2019-01-19T16:32:08.085Z,16.90
2019-01-19T16:35:17.053Z,15.00
2019-01-19T16:38:27.407Z,15.20
2019-01-19T16:41:45.867Z,14.93
2019-01-19T16:45:09.922Z,15.98
2019-01-19T16:48:22.051Z,14.17
2019-01-19T16:51:32.705Z,15.80
2019-01-19T16:54:47.796Z,14.90
2019-01-19T16:57:49.618Z,16.93
2019-01-19T17:01:04.426Z,15.60
2019-01-19T17:04:30.232Z,16.25
2019-01-19T17:07:11.066Z,16.67
2019-01-19T17:10:05.116Z,15.20
2019-01-19T17:13:18.281Z,15.03
2019-01-19T17:16:18.664Z,15.70
2019-01-19T17:19:15.196Z,17.30
2019-01-19T17:22:26.522Z,16.17
2019-01-19T17:25:41.365Z,15.10
2019-01-19T17:28:46.674Z,17.53
2019-01-19T17:31:46.295Z,16.63
2019-01-19T17:34:49.491Z,17.60
2019-01-19T17:37:38.356Z,16.97
2019-01-19T17:40:43.477Z,18.90
2019-01-19T17:43:36.886Z,18.35
2019-01-19T17:47:01.976Z,17.13
2019-01-19T17:49:46.965Z,18.77
2019-01-19T17:52:47.573Z,17.40
2019-01-19T17:55:57.345Z,17.03
2019-01-19T17:58:56.038Z,17.20
2019-01-19T18:02:30.009Z,19.05
2019-01-19T18:05:56.889Z,17.47
2019-01-19T18:08:58.346Z,18.00
2019-01-19T18:11:50.194Z,19.52
2019-01-19T18:14:30.630Z,18.10
2019-01-19T18:17:52.914Z,18.20
2019-01-19T18:21:15.192Z,17.32
2019-01-19T18:24:26.714Z,18.30
2019-01-19T18:27:48.081Z,20.17
2019-01-19T18:30:50.061Z,21.35
2019-01-19T18:34:10.731Z,24.60
2019-01-19T18:37:09.906Z,30.80
2019-01-19T18:40:17.331Z,28.75
2019-01-19T18:42:58.801Z,32.43
2019-01-19T18:46:08.125Z,32.23
2019-01-19T18:49:25.735Z,33.42
2019-01-19T18:52:40.596Z,33.20
2019-01-19T18:55:34.783Z,31.20
2019-01-19T18:58:45.671Z,26.90
2019-01-19T19:01:49.925Z,28.65
2019-01-19T19:04:59.704Z,24.20
2019-01-19T19:08:16.990Z,23.38
2019-01-19T19:11:33.241Z,23.53
2019-01-19T19:14:33.115Z,23.90
2019-01-19T19:17:36.336Z,24.67
2019-01-19T19:20:19.638Z,22.70
2019-01-19T19:23:24.292Z,21.77
2019-01-19T19:26:57.978Z,22.43
2019-01-19T19:30:11.535Z,24.55
2019-01-19T19:33:19.449Z,22.30
2019-01-19T19:36:34.889Z,24.97
2019-01-19T19:39:33.729Z,24.55
2019-01-19T19:42:45.526Z,23.30
2019-01-19T19:45:43.395Z,21.83
2019-01-19T19:48:54.931Z,23.37
2019-01-19T19:52:00.375Z,22.17
2019-01-19T19:54:34.945Z,21.57
2019-01-19T19:57:07.069Z,22.43
2019-01-19T19:59:38.834Z,22.87
2019-01-19T20:02:12.921Z,23.38
2019-01-19T20:04:44.300Z,21.97
2019-01-19T20:07:17.793Z,21.27
2019-01-19T20:09:51.890Z,22.05
2019-01-19T20:12:25.895Z,22.10
2019-01-19T20:15:00.246Z,22.60
2019-01-19T20:17:33.876Z,24.40
2019-01-19T20:20:06.690Z,23.70
2019-01-19T20:22:38.687Z,22.50
2019-01-19T20:25:10.946Z,23.23
2019-01-19T20:27:43.816Z,23.53
2019-01-19T20:30:18.260Z,22.03
2019-01-19T20:32:50.720Z,23.50
2019-01-19T20:35:22.794Z,24.00
2019-01-19T20:37:56.155Z,22.57
2019-01-19T20:40:27.513Z,21.70
2019-01-19T20:42:58.788Z,22.60
2019-01-19T20:45:30.139Z,22.13
2019-01-19T20:48:03.830Z,22.60
2019-01-19T20:50:37.082Z,24.17
2019-01-19T20:53:11.104Z,22.40
2019-01-19T20:55:45.381Z,20.60
2019-01-19T20:58:19.011Z,23.57
2019-01-19T21:00:53.237Z,21.05
2019-01-19T21:03:27.054Z,20.97
2019-01-19T21:06:00.155Z,22.93
2019-01-19T21:08:35.795Z,23.45
2019-01-19T21:11:08.659Z,22.77
2019-01-19T21:13:39.934Z,23.57
2019-01-19T21:16:13.963Z,22.40
2019-01-19T21:18:47.038Z,23.50
2019-01-19T21:21:19.125Z,22.20
2019-01-19T21:23:52.094Z,23.17
2019-01-19T21:26:25.999Z,21.90
2019-01-19T21:28:58.162Z,22.52
2019-01-19T21:31:31.155Z,22.10
2019-01-19T21:34:03.278Z,23.60
2019-01-19T21:36:37.849Z,24.90
2019-01-19T21:39:10.257Z,22.83
2019-01-19T21:41:45.885Z,24.10
2019-01-19T21:44:18.114Z,22.60
2019-01-19T21:46:53.757Z,20.70
2019-01-19T21:49:26.148Z,23.50
2019-01-19T21:52:00.123Z,22.90
2019-01-19T21:54:33.173Z,23.63
2019-01-19T21:57:06.291Z,24.17
2019-01-19T21:59:39.140Z,24.82
2019-01-19T22:02:12.302Z,24.02
2019-01-19T22:04:44.153Z,21.93
2019-01-19T22:07:15.412Z,24.18
2019-01-19T22:09:49.219Z,22.57
2019-01-19T22:12:23.344Z,23.53
2019-01-19T22:14:56.313Z,23.40
2019-01-19T22:17:30.210Z,22.43
2019-01-19T22:20:03.315Z,22.97
2019-01-19T22:22:35.304Z,23.53
2019-01-19T22:25:06.946Z,23.90
2019-01-19T22:27:43.246Z,23.67
2019-01-19T22:30:16.697Z,24.95
2019-01-19T22:32:49.451Z,24.07
2019-01-19T22:35:26.109Z,28.93
2019-01-19T22:37:59.645Z,27.80
2019-01-19T22:40:34.360Z,30.57
2019-01-19T22:43:09.115Z,27.27
2019-01-19T22:45:41.456Z,30.40
2019-01-19T22:48:15.483Z,28.10
2019-01-19T22:50:46.834Z,27.23
2019-01-19T22:53:20.444Z,24.80
2019-01-19T22:55:54.345Z,24.40
2019-01-19T22:58:28.505Z,23.90
2019-01-19T23:02:02.526Z,25.15
2019-01-19T23:04:37.980Z,24.60
2019-01-19T23:07:12.578Z,22.93
2019-01-19T23:09:44.509Z,23.30
2019-01-19T23:12:16.583Z,23.60
2019-01-19T23:14:49.948Z,24.20
2019-01-19T23:17:23.567Z,25.75
2019-01-19T23:19:57.578Z,24.93
2019-01-19T23:22:29.005Z,26.27
2019-01-19T23:25:00.869Z,24.17
2019-01-19T23:27:33.585Z,23.87
2019-01-19T23:30:08.029Z,25.97
2019-01-19T23:32:41.649Z,23.43
2019-01-19T23:35:15.540Z,25.57
2019-01-19T23:37:50.505Z,24.40
2019-01-19T23:40:23.718Z,25.23
2019-01-19T23:42:57.657Z,23.60
2019-01-19T23:45:33.177Z,25.50
2019-01-19T23:48:06.588Z,23.83
2019-01-19T23:50:39.502Z,26.00
2019-01-19T23:53:10.759Z,24.13
2019-01-19T23:55:44.764Z,25.30
2019-01-19T23:58:18.862Z,26.47
